sensor_id;sensor_type;location;lat;lon;timestamp;pressure;altitude;pressure_sealevel;temperature;humidity
9740;BME280;4909;42.680;26.324;2023-08-20T00:01:04;98690.00;;;25.61;61.85
9740;BME280;4909;42.680;26.324;2023-08-20T00:03:31;98693.25;;;25.46;62.25
9740;BME280;4909;42.680;26.324;2023-08-20T00:05:59;98690.72;;;25.45;63.76
9740;BME280;4909;42.680;26.324;2023-08-20T00:08:27;98696.16;;;25.45;62.26
9740;BME280;4909;42.680;26.324;2023-08-20T00:10:54;98691.38;;;25.39;60.82
9740;BME280;4909;42.680;26.324;2023-08-20T00:13:20;98691.25;;;25.48;62.81
9740;BME280;4909;42.680;26.324;2023-08-20T00:15:48;98689.38;;;25.49;61.94
9740;BME280;4909;42.680;26.324;2023-08-20T00:18:15;98683.47;;;25.53;62.44
9740;BME280;4909;42.680;26.324;2023-08-20T00:20:42;98682.03;;;25.67;62.74
9740;BME280;4909;42.680;26.324;2023-08-20T00:23:11;98679.16;;;25.69;62.07
9740;BME280;4909;42.680;26.324;2023-08-20T00:25:40;98685.50;;;25.77;61.94
9740;BME280;4909;42.680;26.324;2023-08-20T00:28:07;98681.75;;;25.70;61.93
9740;BME280;4909;42.680;26.324;2023-08-20T00:30:34;98695.13;;;25.64;59.87
9740;BME280;4909;42.680;26.324;2023-08-20T00:33:00;98695.59;;;25.59;62.27
9740;BME280;4909;42.680;26.324;2023-08-20T00:35:27;98682.88;;;25.42;61.42
9740;BME280;4909;42.680;26.324;2023-08-20T00:37:54;98690.22;;;25.41;62.20
9740;BME280;4909;42.680;26.324;2023-08-20T00:40:21;98685.13;;;25.46;60.79
9740;BME280;4909;42.680;26.324;2023-08-20T00:42:49;98687.38;;;25.51;61.78
9740;BME280;4909;42.680;26.324;2023-08-20T00:45:16;98688.91;;;25.53;61.18
9740;BME280;4909;42.680;26.324;2023-08-20T00:47:44;98681.53;;;25.64;61.85
9740;BME280;4909;42.680;26.324;2023-08-20T00:50:11;98677.81;;;25.73;59.57
9740;BME280;4909;42.680;26.324;2023-08-20T00:52:38;98687.66;;;25.66;60.29
9740;BME280;4909;42.680;26.324;2023-08-20T00:55:08;98674.88;;;25.58;61.71
9740;BME280;4909;42.680;26.324;2023-08-20T00:57:36;98676.72;;;25.58;61.37
9740;BME280;4909;42.680;26.324;2023-08-20T01:00:05;98673.22;;;25.47;61.95
9740;BME280;4909;42.680;26.324;2023-08-20T01:02:34;98661.22;;;25.50;60.14
9740;BME280;4909;42.680;26.324;2023-08-20T01:05:03;98675.09;;;25.47;60.53
9740;BME280;4909;42.680;26.324;2023-08-20T01:07:37;98670.50;;;25.47;61.44
9740;BME280;4909;42.680;26.324;2023-08-20T01:10:12;98676.06;;;25.56;59.74
9740;BME280;4909;42.680;26.324;2023-08-20T01:12:41;98680.22;;;25.50;61.87
9740;BME280;4909;42.680;26.324;2023-08-20T01:15:11;98684.31;;;25.54;60.88
9740;BME280;4909;42.680;26.324;2023-08-20T01:17:39;98685.25;;;25.63;60.47
9740;BME280;4909;42.680;26.324;2023-08-20T01:20:07;98672.28;;;25.57;61.45
9740;BME280;4909;42.680;26.324;2023-08-20T01:25:37;98673.16;;;25.31;62.16
9740;BME280;4909;42.680;26.324;2023-08-20T01:28:23;98672.41;;;25.21;63.12
9740;BME280;4909;42.680;26.324;2023-08-20T01:30:51;98671.03;;;25.17;62.44
9740;BME280;4909;42.680;26.324;2023-08-20T01:33:19;98672.81;;;25.08;64.07
9740;BME280;4909;42.680;26.324;2023-08-20T01:35:46;98665.97;;;25.22;61.39
9740;BME280;4909;42.680;26.324;2023-08-20T01:38:13;98669.63;;;25.13;64.16
9740;BME280;4909;42.680;26.324;2023-08-20T01:40:40;98665.41;;;25.19;62.78
9740;BME280;4909;42.680;26.324;2023-08-20T01:43:07;98670.38;;;25.23;63.37
9740;BME280;4909;42.680;26.324;2023-08-20T01:45:35;98679.75;;;25.29;61.83
9740;BME280;4909;42.680;26.324;2023-08-20T01:48:02;98672.06;;;25.24;61.94
9740;BME280;4909;42.680;26.324;2023-08-20T01:50:29;98660.63;;;25.13;63.02
9740;BME280;4909;42.680;26.324;2023-08-20T01:52:56;98659.88;;;25.02;64.00
9740;BME280;4909;42.680;26.324;2023-08-20T01:55:22;98654.47;;;25.02;62.37
9740;BME280;4909;42.680;26.324;2023-08-20T01:57:49;98654.72;;;25.17;63.00
9740;BME280;4909;42.680;26.324;2023-08-20T02:00:16;98648.44;;;25.17;63.23
9740;BME280;4909;42.680;26.324;2023-08-20T02:02:44;98650.94;;;25.10;63.15
9740;BME280;4909;42.680;26.324;2023-08-20T02:05:11;98645.53;;;25.18;61.15
9740;BME280;4909;42.680;26.324;2023-08-20T02:07:38;98650.06;;;25.09;62.38
9740;BME280;4909;42.680;26.324;2023-08-20T02:10:05;98656.59;;;25.17;62.71
9740;BME280;4909;42.680;26.324;2023-08-20T02:12:32;98657.38;;;25.09;62.23
9740;BME280;4909;42.680;26.324;2023-08-20T02:14:59;98656.03;;;25.13;63.33
9740;BME280;4909;42.680;26.324;2023-08-20T02:17:26;98654.97;;;25.06;62.57
9740;BME280;4909;42.680;26.324;2023-08-20T02:19:54;98658.38;;;25.08;62.70
9740;BME280;4909;42.680;26.324;2023-08-20T02:22:21;98657.75;;;25.14;61.63
9740;BME280;4909;42.680;26.324;2023-08-20T02:24:47;98652.56;;;25.03;62.16
9740;BME280;4909;42.680;26.324;2023-08-20T02:27:14;98646.09;;;24.96;63.45
9740;BME280;4909;42.680;26.324;2023-08-20T02:29:41;98643.31;;;24.88;63.76
9740;BME280;4909;42.680;26.324;2023-08-20T02:32:07;98652.47;;;24.87;64.84
9740;BME280;4909;42.680;26.324;2023-08-20T02:34:34;98648.47;;;24.99;63.63
9740;BME280;4909;42.680;26.324;2023-08-20T02:37:02;98651.75;;;25.02;62.34
9740;BME280;4909;42.680;26.324;2023-08-20T02:39:29;98654.13;;;25.05;63.55
9740;BME280;4909;42.680;26.324;2023-08-20T02:41:56;98649.84;;;25.03;63.28
9740;BME280;4909;42.680;26.324;2023-08-20T02:44:23;98650.78;;;25.12;61.71
9740;BME280;4909;42.680;26.324;2023-08-20T02:46:50;98657.00;;;25.04;60.84
9740;BME280;4909;42.680;26.324;2023-08-20T02:49:17;98662.91;;;24.99;62.70
9740;BME280;4909;42.680;26.324;2023-08-20T02:51:43;98660.03;;;25.01;62.83
9740;BME280;4909;42.680;26.324;2023-08-20T02:54:11;98658.66;;;24.97;61.29
9740;BME280;4909;42.680;26.324;2023-08-20T02:56:38;98664.38;;;24.94;62.56
9740;BME280;4909;42.680;26.324;2023-08-20T02:59:05;98661.00;;;24.92;61.27
9740;BME280;4909;42.680;26.324;2023-08-20T03:01:32;98662.16;;;24.72;62.76
9740;BME280;4909;42.680;26.324;2023-08-20T03:03:58;98662.56;;;24.59;64.67
9740;BME280;4909;42.680;26.324;2023-08-20T03:06:25;98664.31;;;24.68;64.59
9740;BME280;4909;42.680;26.324;2023-08-20T03:08:52;98665.09;;;24.60;63.83
9740;BME280;4909;42.680;26.324;2023-08-20T03:11:20;98661.44;;;24.69;64.87
9740;BME280;4909;42.680;26.324;2023-08-20T03:13:47;98663.91;;;24.81;63.72
9740;BME280;4909;42.680;26.324;2023-08-20T03:16:13;98663.75;;;24.64;62.81
9740;BME280;4909;42.680;26.324;2023-08-20T03:18:40;98667.19;;;24.66;63.09
9740;BME280;4909;42.680;26.324;2023-08-20T03:21:07;98664.16;;;24.69;61.77
9740;BME280;4909;42.680;26.324;2023-08-20T03:23:34;98654.00;;;24.72;63.00
9740;BME280;4909;42.680;26.324;2023-08-20T03:26:00;98662.28;;;24.70;64.02
9740;BME280;4909;42.680;26.324;2023-08-20T03:28:29;98646.78;;;24.80;63.42
9740;BME280;4909;42.680;26.324;2023-08-20T03:30:59;98656.94;;;24.96;61.48
9740;BME280;4909;42.680;26.324;2023-08-20T03:33:26;98656.94;;;24.96;61.74
9740;BME280;4909;42.680;26.324;2023-08-20T03:35:53;98652.84;;;24.92;62.50
9740;BME280;4909;42.680;26.324;2023-08-20T03:38:19;98653.22;;;24.97;60.93
9740;BME280;4909;42.680;26.324;2023-08-20T03:40:47;98659.22;;;25.08;61.96
9740;BME280;4909;42.680;26.324;2023-08-20T03:43:14;98646.84;;;25.06;62.42
9740;BME280;4909;42.680;26.324;2023-08-20T03:45:42;98644.69;;;25.18;61.08
9740;BME280;4909;42.680;26.324;2023-08-20T03:48:09;98649.19;;;25.01;62.57
9740;BME280;4909;42.680;26.324;2023-08-20T03:50:36;98649.75;;;25.13;62.33
9740;BME280;4909;42.680;26.324;2023-08-20T03:53:03;98654.53;;;25.19;61.96
9740;BME280;4909;42.680;26.324;2023-08-20T03:55:30;98653.75;;;25.26;61.44
9740;BME280;4909;42.680;26.324;2023-08-20T03:57:57;98653.75;;;25.26;59.94
9740;BME280;4909;42.680;26.324;2023-08-20T04:00:23;98649.44;;;25.16;60.14
9740;BME280;4909;42.680;26.324;2023-08-20T04:02:52;98649.94;;;24.93;59.89
9740;BME280;4909;42.680;26.324;2023-08-20T04:05:18;98655.91;;;24.79;62.18
9740;BME280;4909;42.680;26.324;2023-08-20T04:07:46;98657.56;;;24.90;61.22
9740;BME280;4909;42.680;26.324;2023-08-20T04:10:12;98649.28;;;24.91;61.66
9740;BME280;4909;42.680;26.324;2023-08-20T04:12:39;98652.72;;;24.84;62.63
9740;BME280;4909;42.680;26.324;2023-08-20T04:15:06;98649.28;;;24.91;63.43
9740;BME280;4909;42.680;26.324;2023-08-20T04:17:33;98653.38;;;24.95;62.73
9740;BME280;4909;42.680;26.324;2023-08-20T04:20:01;98647.47;;;25.00;62.12
9740;BME280;4909;42.680;26.324;2023-08-20T04:22:28;98653.03;;;24.98;61.57
9740;BME280;4909;42.680;26.324;2023-08-20T04:24:56;98657.38;;;25.09;61.70
9740;BME280;4909;42.680;26.324;2023-08-20T04:27:23;98659.41;;;25.07;62.33
9740;BME280;4909;42.680;26.324;2023-08-20T04:29:50;98660.47;;;25.14;60.64
9740;BME280;4909;42.680;26.324;2023-08-20T04:32:17;98653.06;;;25.24;60.28
9740;BME280;4909;42.680;26.324;2023-08-20T04:34:43;98652.06;;;25.25;60.73
9740;BME280;4909;42.680;26.324;2023-08-20T04:37:13;98650.72;;;25.29;60.06
9740;BME280;4909;42.680;26.324;2023-08-20T04:39:39;98650.94;;;25.36;60.68
9740;BME280;4909;42.680;26.324;2023-08-20T04:42:06;98645.06;;;25.48;61.36
9740;BME280;4909;42.680;26.324;2023-08-20T04:44:33;98650.16;;;25.51;61.01
9740;BME280;4909;42.680;26.324;2023-08-20T04:47:00;98644.81;;;25.60;60.37
9740;BME280;4909;42.680;26.324;2023-08-20T04:49:27;98655.06;;;25.74;59.27
9740;BME280;4909;42.680;26.324;2023-08-20T04:51:55;98660.00;;;25.70;59.26
9740;BME280;4909;42.680;26.324;2023-08-20T04:54:23;98657.94;;;25.72;59.11
9740;BME280;4909;42.680;26.324;2023-08-20T04:56:50;98652.00;;;25.77;58.64
9740;BME280;4909;42.680;26.324;2023-08-20T04:59:17;98653.34;;;25.73;58.20
9740;BME280;4909;42.680;26.324;2023-08-20T05:01:44;98651.16;;;25.76;59.57
9740;BME280;4909;42.680;26.324;2023-08-20T05:04:10;98657.28;;;25.70;58.24
9740;BME280;4909;42.680;26.324;2023-08-20T05:06:37;98653.03;;;25.76;58.31
9740;BME280;4909;42.680;26.324;2023-08-20T05:09:04;98658.66;;;25.82;58.67
9740;BME280;4909;42.680;26.324;2023-08-20T05:11:32;98658.16;;;25.87;60.08
9740;BME280;4909;42.680;26.324;2023-08-20T05:13:59;98644.72;;;25.85;60.08
9740;BME280;4909;42.680;26.324;2023-08-20T05:16:26;98650.03;;;25.95;59.72
9740;BME280;4909;42.680;26.324;2023-08-20T05:18:53;98649.50;;;25.83;59.03
9740;BME280;4909;42.680;26.324;2023-08-20T05:21:20;98654.78;;;25.85;60.54
9740;BME280;4909;42.680;26.324;2023-08-20T05:23:46;98653.81;;;26.02;60.41
9740;BME280;4909;42.680;26.324;2023-08-20T05:26:13;98655.72;;;26.18;59.35
9740;BME280;4909;42.680;26.324;2023-08-20T05:28:41;98646.25;;;26.22;56.03
9740;BME280;4909;42.680;26.324;2023-08-20T05:31:08;98655.97;;;26.41;55.46
9740;BME280;4909;42.680;26.324;2023-08-20T05:33:36;98666.03;;;26.56;54.65
9740;BME280;4909;42.680;26.324;2023-08-20T05:36:03;98649.88;;;26.71;54.34
9740;BME280;4909;42.680;26.324;2023-08-20T05:38:29;98658.94;;;26.88;52.91
9740;BME280;4909;42.680;26.324;2023-08-20T05:40:56;98655.38;;;26.95;52.09
9740;BME280;4909;42.680;26.324;2023-08-20T05:43:23;98651.78;;;27.11;52.72
9740;BME280;4909;42.680;26.324;2023-08-20T05:45:51;98653.59;;;27.27;51.99
9740;BME280;4909;42.680;26.324;2023-08-20T05:48:18;98650.69;;;27.36;49.75
9740;BME280;4909;42.680;26.324;2023-08-20T05:50:44;98649.84;;;27.52;50.10
9740;BME280;4909;42.680;26.324;2023-08-20T05:53:11;98654.59;;;27.58;49.65
9740;BME280;4909;42.680;26.324;2023-08-20T05:55:38;98645.84;;;27.71;50.49
9740;BME280;4909;42.680;26.324;2023-08-20T05:58:05;98647.72;;;27.78;49.53
9740;BME280;4909;42.680;26.324;2023-08-20T06:00:32;98645.63;;;27.88;48.19
9740;BME280;4909;42.680;26.324;2023-08-20T06:03:00;98643.00;;;28.03;48.64
9740;BME280;4909;42.680;26.324;2023-08-20T06:05:27;98645.00;;;28.09;48.64
9740;BME280;4909;42.680;26.324;2023-08-20T06:07:54;98642.28;;;28.17;46.99
9740;BME280;4909;42.680;26.324;2023-08-20T06:10:20;98639.25;;;28.35;47.06
9740;BME280;4909;42.680;26.324;2023-08-20T06:12:47;98639.50;;;28.48;47.13
9740;BME280;4909;42.680;26.324;2023-08-20T06:15:14;98635.50;;;28.59;47.22
9740;BME280;4909;42.680;26.324;2023-08-20T06:17:41;98638.50;;;28.72;46.36
9740;BME280;4909;42.680;26.324;2023-08-20T06:20:10;98637.22;;;28.82;46.32
9740;BME280;4909;42.680;26.324;2023-08-20T06:22:37;98646.69;;;28.94;44.91
9740;BME280;4909;42.680;26.324;2023-08-20T06:25:05;98641.44;;;29.08;45.55
9740;BME280;4909;42.680;26.324;2023-08-20T06:27:32;98650.06;;;29.34;45.22
9740;BME280;4909;42.680;26.324;2023-08-20T06:29:59;98647.84;;;29.52;43.69
9740;BME280;4909;42.680;26.324;2023-08-20T06:32:26;98642.28;;;29.60;43.24
9740;BME280;4909;42.680;26.324;2023-08-20T06:34:53;98657.09;;;29.80;43.60
9740;BME280;4909;42.680;26.324;2023-08-20T06:37:21;98652.94;;;29.99;43.79
9740;BME280;4909;42.680;26.324;2023-08-20T06:39:48;98646.31;;;30.08;42.84
9740;BME280;4909;42.680;26.324;2023-08-20T06:42:14;98639.69;;;30.17;43.37
9740;BME280;4909;42.680;26.324;2023-08-20T06:44:41;98652.69;;;30.30;43.18
9740;BME280;4909;42.680;26.324;2023-08-20T06:47:08;98649.66;;;30.40;42.31
9740;BME280;4909;42.680;26.324;2023-08-20T06:49:35;98647.06;;;30.53;42.53
9740;BME280;4909;42.680;26.324;2023-08-20T06:52:02;98627.50;;;30.56;42.24
9740;BME280;4909;42.680;26.324;2023-08-20T06:54:30;98653.63;;;30.73;42.04
9740;BME280;4909;42.680;26.324;2023-08-20T06:56:57;98648.38;;;30.78;41.70
9740;BME280;4909;42.680;26.324;2023-08-20T06:59:23;98657.50;;;30.85;42.10
9740;BME280;4909;42.680;26.324;2023-08-20T07:01:50;98662.03;;;30.93;41.39
9740;BME280;4909;42.680;26.324;2023-08-20T07:04:17;98661.63;;;30.96;42.38
9740;BME280;4909;42.680;26.324;2023-08-20T07:06:44;98662.56;;;31.03;41.72
9740;BME280;4909;42.680;26.324;2023-08-20T07:09:10;98663.00;;;31.06;41.71
9740;BME280;4909;42.680;26.324;2023-08-20T07:11:39;98658.63;;;31.12;42.10
9740;BME280;4909;42.680;26.324;2023-08-20T07:14:05;98655.75;;;31.20;41.63
9740;BME280;4909;42.680;26.324;2023-08-20T07:16:32;98656.41;;;31.22;41.33
9740;BME280;4909;42.680;26.324;2023-08-20T07:18:59;98619.34;;;31.05;41.07
9740;BME280;4909;42.680;26.324;2023-08-20T07:21:25;98667.06;;;31.38;41.49
9740;BME280;4909;42.680;26.324;2023-08-20T07:23:52;98664.47;;;31.30;40.81
9740;BME280;4909;42.680;26.324;2023-08-20T07:26:19;98663.81;;;31.28;42.03
9740;BME280;4909;42.680;26.324;2023-08-20T07:28:47;98661.13;;;31.35;41.19
9740;BME280;4909;42.680;26.324;2023-08-20T07:31:22;98657.59;;;31.41;40.02
9740;BME280;4909;42.680;26.324;2023-08-20T07:33:50;98663.09;;;31.47;40.86
9740;BME280;4909;42.680;26.324;2023-08-20T07:36:17;98651.50;;;31.45;41.11
9740;BME280;4909;42.680;26.324;2023-08-20T07:38:44;98647.72;;;31.46;40.72
9740;BME280;4909;42.680;26.324;2023-08-20T07:41:13;98650.13;;;31.56;40.71
9740;BME280;4909;42.680;26.324;2023-08-20T07:43:41;98653.59;;;31.71;40.18
9740;BME280;4909;42.680;26.324;2023-08-20T07:46:09;98646.69;;;31.82;40.64
9740;BME280;4909;42.680;26.324;2023-08-20T07:48:36;98653.13;;;32.02;39.57
9740;BME280;4909;42.680;26.324;2023-08-20T07:51:03;98635.06;;;32.14;39.95
9740;BME280;4909;42.680;26.324;2023-08-20T07:53:30;98650.56;;;32.42;38.48
9740;BME280;4909;42.680;26.324;2023-08-20T07:55:57;98643.63;;;32.59;38.80
9740;BME280;4909;42.680;26.324;2023-08-20T07:58:23;98641.78;;;32.72;39.07
9740;BME280;4909;42.680;26.324;2023-08-20T08:00:50;98638.59;;;32.69;37.84
9740;BME280;4909;42.680;26.324;2023-08-20T08:03:18;98644.47;;;32.59;38.24
9740;BME280;4909;42.680;26.324;2023-08-20T08:05:48;98643.63;;;32.59;37.29
9740;BME280;4909;42.680;26.324;2023-08-20T08:08:15;98638.94;;;32.46;38.37
9740;BME280;4909;42.680;26.324;2023-08-20T08:10:42;98633.88;;;32.50;38.13
9740;BME280;4909;42.680;26.324;2023-08-20T08:13:10;98645.75;;;32.57;38.18
9740;BME280;4909;42.680;26.324;2023-08-20T08:15:37;98637.13;;;32.66;37.41
9740;BME280;4909;42.680;26.324;2023-08-20T08:18:04;98638.19;;;32.72;38.67
9740;BME280;4909;42.680;26.324;2023-08-20T08:20:32;98629.94;;;32.72;38.98
9740;BME280;4909;42.680;26.324;2023-08-20T08:22:59;98634.63;;;32.91;38.81
9740;BME280;4909;42.680;26.324;2023-08-20T08:25:27;98627.19;;;32.98;37.16
9740;BME280;4909;42.680;26.324;2023-08-20T08:27:54;98637.81;;;33.01;36.59
9740;BME280;4909;42.680;26.324;2023-08-20T08:30:20;98644.53;;;32.92;35.69
9740;BME280;4909;42.680;26.324;2023-08-20T08:32:47;98633.78;;;32.91;37.12
9740;BME280;4909;42.680;26.324;2023-08-20T08:35:14;98645.34;;;32.73;35.89
9740;BME280;4909;42.680;26.324;2023-08-20T08:37:42;98639.66;;;32.68;38.03
9740;BME280;4909;42.680;26.324;2023-08-20T08:40:09;98642.41;;;32.88;36.69
9740;BME280;4909;42.680;26.324;2023-08-20T08:42:36;98638.19;;;32.98;36.89
9740;BME280;4909;42.680;26.324;2023-08-20T08:45:03;98642.88;;;33.11;35.17
9740;BME280;4909;42.680;26.324;2023-08-20T08:47:30;98623.41;;;32.99;37.04
9740;BME280;4909;42.680;26.324;2023-08-20T08:49:57;98640.78;;;33.19;37.00
9740;BME280;4909;42.680;26.324;2023-08-20T08:52:25;98631.88;;;33.11;36.40
9740;BME280;4909;42.680;26.324;2023-08-20T08:54:53;98647.94;;;33.01;37.25
9740;BME280;4909;42.680;26.324;2023-08-20T08:57:20;98644.34;;;33.00;35.77
9740;BME280;4909;42.680;26.324;2023-08-20T08:59:47;98642.44;;;33.14;37.18
9740;BME280;4909;42.680;26.324;2023-08-20T09:02:17;98640.78;;;33.33;36.78
9740;BME280;4909;42.680;26.324;2023-08-20T09:04:44;98646.88;;;33.48;35.49
9740;BME280;4909;42.680;26.324;2023-08-20T09:07:12;98644.81;;;33.30;35.34
9740;BME280;4909;42.680;26.324;2023-08-20T09:09:41;98643.06;;;33.36;36.45
9740;BME280;4909;42.680;26.324;2023-08-20T09:12:13;98644.56;;;33.45;35.54
9740;BME280;4909;42.680;26.324;2023-08-20T09:14:45;98642.06;;;33.30;34.84
9740;BME280;4909;42.680;26.324;2023-08-20T09:17:13;98628.06;;;33.32;35.82
9740;BME280;4909;42.680;26.324;2023-08-20T09:19:42;98650.28;;;33.43;35.52
9740;BME280;4909;42.680;26.324;2023-08-20T09:22:10;98645.63;;;33.44;35.03
9740;BME280;4909;42.680;26.324;2023-08-20T09:24:41;98644.09;;;33.61;34.10
9740;BME280;4909;42.680;26.324;2023-08-20T09:27:09;98657.47;;;33.71;33.63
9740;BME280;4909;42.680;26.324;2023-08-20T09:29:45;98638.00;;;33.46;34.32
9740;BME280;4909;42.680;26.324;2023-08-20T09:32:16;98637.34;;;33.50;34.00
9740;BME280;4909;42.680;26.324;2023-08-20T09:34:45;98645.41;;;33.58;34.55
9740;BME280;4909;42.680;26.324;2023-08-20T09:37:13;98645.34;;;33.65;34.19
9740;BME280;4909;42.680;26.324;2023-08-20T09:39:40;98644.28;;;33.79;34.30
9740;BME280;4909;42.680;26.324;2023-08-20T09:42:08;98646.44;;;33.84;35.07
9740;BME280;4909;42.680;26.324;2023-08-20T09:44:37;98644.47;;;33.97;34.47
9740;BME280;4909;42.680;26.324;2023-08-20T09:47:07;98636.00;;;33.92;34.65
9740;BME280;4909;42.680;26.324;2023-08-20T09:49:37;98625.03;;;33.79;33.71
9740;BME280;4909;42.680;26.324;2023-08-20T09:52:06;98636.44;;;33.89;34.30
9740;BME280;4909;42.680;26.324;2023-08-20T09:54:43;98627.47;;;34.07;34.27
9740;BME280;4909;42.680;26.324;2023-08-20T09:57:16;98617.72;;;34.11;33.91
9740;BME280;4909;42.680;26.324;2023-08-20T09:59:46;98624.06;;;34.12;33.92
9740;BME280;4909;42.680;26.324;2023-08-20T10:02:14;98629.59;;;34.12;32.19
9740;BME280;4909;42.680;26.324;2023-08-20T10:04:42;98613.06;;;34.05;32.87
9740;BME280;4909;42.680;26.324;2023-08-20T10:07:10;98635.50;;;34.22;32.19
9740;BME280;4909;42.680;26.324;2023-08-20T10:09:38;98638.69;;;34.19;32.35
9740;BME280;4909;42.680;26.324;2023-08-20T10:12:06;98629.38;;;34.07;32.88
9740;BME280;4909;42.680;26.324;2023-08-20T10:14:33;98641.78;;;33.71;32.99
9740;BME280;4909;42.680;26.324;2023-08-20T10:17:06;98633.69;;;33.89;33.13
9740;BME280;4909;42.680;26.324;2023-08-20T10:19:35;98632.41;;;33.85;33.13
9740;BME280;4909;42.680;26.324;2023-08-20T10:22:03;98606.00;;;33.51;33.83
9740;BME280;4909;42.680;26.324;2023-08-20T10:24:40;98616.53;;;33.87;34.33
9740;BME280;4909;42.680;26.324;2023-08-20T10:27:08;98619.03;;;34.02;33.79
9740;BME280;4909;42.680;26.324;2023-08-20T10:29:36;98604.81;;;34.05;33.72
9740;BME280;4909;42.680;26.324;2023-08-20T10:32:05;98614.03;;;34.30;34.14
9740;BME280;4909;42.680;26.324;2023-08-20T10:34:32;98626.47;;;34.46;33.67
9740;BME280;4909;42.680;26.324;2023-08-20T10:37:02;98620.06;;;34.52;34.08
9740;BME280;4909;42.680;26.324;2023-08-20T10:39:29;98619.47;;;34.43;34.37
9740;BME280;4909;42.680;26.324;2023-08-20T10:42:25;98612.69;;;34.46;34.61
9740;BME280;4909;42.680;26.324;2023-08-20T10:45:02;98623.75;;;34.39;34.93
9740;BME280;4909;42.680;26.324;2023-08-20T10:47:37;98613.59;;;34.33;34.62
9740;BME280;4909;42.680;26.324;2023-08-20T10:50:04;98626.22;;;34.03;34.77
9740;BME280;4909;42.680;26.324;2023-08-20T10:52:38;98614.97;;;34.11;35.91
9740;BME280;4909;42.680;26.324;2023-08-20T10:55:06;98610.06;;;34.20;36.14
9740;BME280;4909;42.680;26.324;2023-08-20T10:57:34;98624.91;;;34.12;35.42
9740;BME280;4909;42.680;26.324;2023-08-20T11:00:03;98595.28;;;34.08;34.98
9740;BME280;4909;42.680;26.324;2023-08-20T11:02:35;98602.25;;;34.10;36.22
9740;BME280;4909;42.680;26.324;2023-08-20T11:05:02;98602.91;;;34.05;35.48
9740;BME280;4909;42.680;26.324;2023-08-20T11:07:30;98603.38;;;33.96;35.46
9740;BME280;4909;42.680;26.324;2023-08-20T11:09:58;98603.84;;;33.80;35.07
9740;BME280;4909;42.680;26.324;2023-08-20T11:12:25;98597.94;;;33.63;36.09
9740;BME280;4909;42.680;26.324;2023-08-20T11:14:52;98594.16;;;33.64;36.82
9740;BME280;4909;42.680;26.324;2023-08-20T11:17:19;98591.84;;;33.48;36.41
9740;BME280;4909;42.680;26.324;2023-08-20T11:19:45;98569.63;;;33.43;37.02
9740;BME280;4909;42.680;26.324;2023-08-20T11:22:12;98589.31;;;33.46;36.69
9740;BME280;4909;42.680;26.324;2023-08-20T11:24:42;98570.69;;;33.42;36.94
9740;BME280;4909;42.680;26.324;2023-08-20T11:27:10;98573.69;;;33.34;37.04
9740;BME280;4909;42.680;26.324;2023-08-20T11:29:41;98564.19;;;33.30;36.98
9740;BME280;4909;42.680;26.324;2023-08-20T11:32:09;98564.38;;;33.35;36.42
9740;BME280;4909;42.680;26.324;2023-08-20T11:34:36;98563.72;;;33.33;36.24
9740;BME280;4909;42.680;26.324;2023-08-20T11:37:04;98555.91;;;33.30;37.13
9740;BME280;4909;42.680;26.324;2023-08-20T11:39:31;98560.97;;;33.33;36.82
9740;BME280;4909;42.680;26.324;2023-08-20T11:41:58;98551.47;;;33.35;36.13
9740;BME280;4909;42.680;26.324;2023-08-20T11:44:28;98551.44;;;33.42;35.32
9740;BME280;4909;42.680;26.324;2023-08-20T11:46:55;98544.47;;;33.39;35.23
9740;BME280;4909;42.680;26.324;2023-08-20T11:49:27;98540.00;;;33.45;35.93
9740;BME280;4909;42.680;26.324;2023-08-20T11:51:55;98541.66;;;33.52;35.52
9740;BME280;4909;42.680;26.324;2023-08-20T11:54:22;98541.44;;;33.67;35.37
9740;BME280;4909;42.680;26.324;2023-08-20T11:56:51;98543.72;;;33.77;35.55
9740;BME280;4909;42.680;26.324;2023-08-20T11:59:20;98534.41;;;33.78;35.16
9740;BME280;4909;42.680;26.324;2023-08-20T12:01:51;98524.72;;;33.69;35.43
9740;BME280;4909;42.680;26.324;2023-08-20T12:04:18;98531.66;;;33.78;35.28
9740;BME280;4909;42.680;26.324;2023-08-20T12:06:44;98525.09;;;33.72;35.61
9740;BME280;4909;42.680;26.324;2023-08-20T12:09:27;98543.97;;;33.69;34.95
9740;BME280;4909;42.680;26.324;2023-08-20T12:11:54;98545.22;;;33.73;34.87
9740;BME280;4909;42.680;26.324;2023-08-20T12:14:21;98523.44;;;33.58;33.81
9740;BME280;4909;42.680;26.324;2023-08-20T12:16:53;98517.53;;;33.54;33.75
9740;BME280;4909;42.680;26.324;2023-08-20T12:19:19;98531.50;;;33.53;34.08
9740;BME280;4909;42.680;26.324;2023-08-20T12:21:46;98520.91;;;33.56;33.68
9740;BME280;4909;42.680;26.324;2023-08-20T12:24:14;98507.00;;;33.38;33.36
9740;BME280;4909;42.680;26.324;2023-08-20T12:26:41;98538.47;;;33.55;32.07
9740;BME280;4909;42.680;26.324;2023-08-20T12:29:08;98525.81;;;33.48;32.30
9740;BME280;4909;42.680;26.324;2023-08-20T12:31:36;98526.00;;;33.53;32.05
9740;BME280;4909;42.680;26.324;2023-08-20T12:34:04;98516.91;;;33.52;32.89
9740;BME280;4909;42.680;26.324;2023-08-20T12:36:31;98517.31;;;33.56;33.09
9740;BME280;4909;42.680;26.324;2023-08-20T12:38:57;98511.41;;;33.52;32.93
9740;BME280;4909;42.680;26.324;2023-08-20T12:41:24;98521.31;;;33.60;32.36
9740;BME280;4909;42.680;26.324;2023-08-20T12:43:51;98509.88;;;33.63;32.54
9740;BME280;4909;42.680;26.324;2023-08-20T12:46:18;98514.94;;;33.66;31.83
9740;BME280;4909;42.680;26.324;2023-08-20T12:48:45;98512.63;;;33.70;31.82
9740;BME280;4909;42.680;26.324;2023-08-20T12:51:13;98507.28;;;33.75;32.33
9740;BME280;4909;42.680;26.324;2023-08-20T12:53:42;98519.19;;;33.69;32.21
9740;BME280;4909;42.680;26.324;2023-08-20T12:56:09;98505.66;;;33.67;32.61
9740;BME280;4909;42.680;26.324;2023-08-20T12:58:37;98516.66;;;33.67;31.92
9740;BME280;4909;42.680;26.324;2023-08-20T13:01:04;98498.41;;;33.66;32.53
9740;BME280;4909;42.680;26.324;2023-08-20T13:03:31;98495.28;;;33.69;32.79
9740;BME280;4909;42.680;26.324;2023-08-20T13:05:58;98482.34;;;33.70;32.51
9740;BME280;4909;42.680;26.324;2023-08-20T13:08:27;98488.56;;;33.90;32.77
9740;BME280;4909;42.680;26.324;2023-08-20T13:10:55;98485.78;;;33.96;32.76
9740;BME280;4909;42.680;26.324;2023-08-20T13:13:23;98493.59;;;33.99;32.23
9740;BME280;4909;42.680;26.324;2023-08-20T13:15:51;98487.06;;;33.94;31.76